Time;durP1;ratioP1;P1;durP2;ratioP2;P2;SDS_P1;SDS_P2;PMS_P1;PMS_P2;Temp;Humidity;BMP_temperature;BMP_pressure;BME280_temperature;BME280_humidity;BME280_pressure;Samples;Min_cycle;Max_cycle;Signal;HPM_P1;HPM_P2
2022/01/14 00:01:05;;;;;;;77.15;22.42;;;;;;;2.14;100.00;103832.97;5015160;28;20033;-86
2022/01/14 00:03:31;;;;;;;60.15;22.65;;;;;;;2.11;100.00;103835.47;5015084;28;20046;-88
2022/01/14 00:06:09;;;;;;;62.83;22.77;;;;;;;2.09;100.00;103835.44;5017588;28;20034;-89
2022/01/14 00:08:37;;;;;;;69.07;22.52;;;;;;;2.06;100.00;103824.31;5017410;28;20050;-76
2022/01/14 00:11:03;;;;;;;64.25;21.75;;;;;;;2.05;100.00;103813.25;5016431;28;20125;-89
2022/01/14 00:14:08;;;;;;;59.88;21.77;;;;;;;2.09;100.00;103830.34;5018294;28;20026;-86
2022/01/14 00:16:34;;;;;;;55.10;22.80;;;;;;;1.88;100.00;103790.00;5016443;28;20080;-89
2022/01/14 00:19:00;;;;;;;65.00;23.13;;;;;;;2.11;100.00;103822.72;5015126;28;20034;-86
2022/01/14 00:21:29;;;;;;;59.70;22.95;;;;;;;1.92;100.00;103786.66;4998923;28;20026;-88
2022/01/14 00:24:07;;;;;;;57.70;22.95;;;;;;;2.10;100.00;103808.28;5016759;28;20033;-88
2022/01/14 00:32:01;;;;;;;81.20;24.88;;;;;;;0.94;100.00;103630.09;5016068;28;20121;-73
2022/01/14 00:34:27;;;;;;;68.57;24.27;;;;;;;1.50;100.00;103717.00;5014491;28;20026;-78
2022/01/14 00:36:52;;;;;;;61.45;23.08;;;;;;;1.87;100.00;103772.09;5014574;28;20037;-76
2022/01/14 00:39:18;;;;;;;72.93;25.83;;;;;;;2.06;100.00;103804.78;5014442;28;20018;-75
2022/01/14 00:41:43;;;;;;;72.80;22.92;;;;;;;1.86;100.00;103767.84;4996312;28;20112;-73
2022/01/14 00:44:16;;;;;;;74.30;25.40;;;;;;;1.76;100.00;103743.00;4996944;28;20418;-74
2022/01/14 00:46:44;;;;;;;73.82;24.35;;;;;;;2.03;100.00;103794.53;5014296;28;20037;-86
2022/01/14 00:49:10;;;;;;;59.97;22.55;;;;;;;2.01;100.00;103793.66;4996616;28;20394;-80
2022/01/14 00:51:36;;;;;;;63.63;23.60;;;;;;;1.99;100.00;103785.13;5014252;28;20026;-87
2022/01/14 00:54:04;;;;;;;62.90;22.90;;;;;;;1.90;100.00;103759.44;5014002;28;20030;-87
2022/01/14 00:59:21;;;;;;;;;;;;;;;2.03;100.00;103770.72;4954048;29;20047;-88
2022/01/14 01:01:48;;;;;;;78.13;22.10;;;;;;;1.96;100.00;103768.06;4953439;29;19914;-88
2022/01/14 01:04:16;;;;;;;63.67;21.58;;;;;;;1.94;100.00;103761.22;4953420;29;20043;-88
2022/01/14 01:06:43;;;;;;;62.97;21.55;;;;;;;1.91;100.00;103758.63;4953417;29;20035;-80
2022/01/14 01:09:11;;;;;;;62.97;22.17;;;;;;;1.81;100.00;103741.44;4953405;29;20034;-85
2022/01/14 01:11:54;;;;;;;66.63;22.90;;;;;;;1.90;100.00;103752.66;4953395;28;20027;-86
2022/01/14 01:14:27;;;;;;;62.00;21.85;;;;;;;1.73;100.00;103728.53;4953261;29;20035;-87
2022/01/14 01:16:52;;;;;;;56.10;21.20;;;;;;;1.91;100.00;103746.72;4952966;29;20088;-84
2022/01/14 01:19:18;;;;;;;66.50;22.02;;;;;;;1.91;100.00;103749.28;4953039;29;20490;-88
2022/01/14 01:21:44;;;;;;;56.38;22.10;;;;;;;1.80;100.00;103722.72;4953313;29;20147;-87
2022/01/14 01:24:11;;;;;;;60.92;22.27;;;;;;;1.94;100.00;103751.88;4953188;29;20037;-87
2022/01/14 01:26:39;;;;;;;61.40;20.38;;;;;;;1.91;100.00;103753.53;4953060;29;20047;-88
2022/01/14 01:31:50;;;;;;;74.47;20.65;;;;;;;1.40;100.00;103675.22;5005764;23;20084;-90
2022/01/14 01:37:53;;;;;;;49.47;19.85;;;;;;;1.90;100.00;103762.84;5015782;28;20046;-88
2022/01/14 01:40:22;;;;;;;46.70;20.40;;;;;;;0.65;100.00;103553.16;5014622;28;20044;-86
2022/01/14 01:42:50;;;;;;;52.75;20.42;;;;;;;1.87;100.00;103752.59;5015003;28;20038;-88
2022/01/14 01:48:00;;;;;;;57.60;20.17;;;;;;;1.88;100.00;103750.91;1330255;26;20062;-88
2022/01/14 01:50:29;;;;;;;46.63;19.63;;;;;;;1.05;100.00;103609.16;5079574;22;20058;-85
2022/01/14 01:55:35;;;;;;;53.05;20.33;;;;;;;1.92;100.00;103747.59;5114176;22;20493;-88
2022/01/14 01:58:01;;;;;;;54.83;20.38;;;;;;;1.78;100.00;103716.75;4997193;28;20480;-84
2022/01/14 02:00:27;;;;;;;45.65;19.20;;;;;;;1.93;100.00;103741.66;5014730;28;20089;-88
2022/01/14 02:02:54;;;;;;;52.08;18.52;;;;;;;1.95;100.00;103750.19;5013926;28;20030;-84
2022/01/14 02:05:20;;;;;;;54.45;19.15;;;;;;;1.93;100.00;103756.94;5014329;28;20021;-88
2022/01/14 02:07:46;;;;;;;45.42;19.27;;;;;;;1.64;100.00;103706.28;5013843;28;20048;-86
2022/01/14 02:10:12;;;;;;;50.47;18.35;;;;;;;1.94;100.00;103751.88;5013423;28;20029;-80
2022/01/14 02:12:46;;;;;;;49.00;18.73;;;;;;;1.79;100.00;103722.72;5012874;28;20084;-86
2022/01/14 02:15:25;;;;;;;50.58;18.40;;;;;;;1.92;100.00;103737.41;5012919;28;20038;-83
2022/01/14 02:23:02;;;;;;;45.03;17.75;;;;;;;1.57;100.00;103683.19;5013121;28;20036;-78
2022/01/14 02:25:29;;;;;;;52.78;17.67;;;;;;;1.67;100.00;103701.25;5012741;28;20389;-74
2022/01/14 02:27:58;;;;;;;49.72;18.35;;;;;;;1.83;100.00;103727.03;5012505;28;20385;-74
2022/01/14 02:30:25;;;;;;;46.53;17.80;;;;;;;1.59;100.00;103686.66;5012497;28;20057;-75
2022/01/14 02:32:51;;;;;;;47.03;16.75;;;;;;;1.57;100.00;103696.78;5012515;28;20030;-73
2022/01/14 02:35:17;;;;;;;57.35;19.35;;;;;;;1.59;100.00;103691.75;5012379;28;20037;-77
2022/01/14 02:37:42;;;;;;;50.70;17.63;;;;;;;1.75;100.00;103726.84;5012635;28;20033;-77
2022/01/14 02:40:09;;;;;;;48.40;18.67;;;;;;;1.51;100.00;103688.16;5012531;28;20633;-74
2022/01/14 02:42:34;;;;;;;48.47;18.45;;;;;;;1.78;100.00;103739.69;5015379;28;20033;-76
2022/01/14 02:45:04;;;;;;;42.13;19.70;;;;;;;1.83;100.00;103735.53;5016873;28;20025;-74
2022/01/14 02:47:30;;;;;;;48.70;18.40;;;;;;;1.84;100.00;103723.63;4998823;28;20470;-76
2022/01/14 02:49:55;;;;;;;45.55;17.50;;;;;;;1.70;100.00;103708.09;5016278;28;20084;-73
2022/01/14 02:53:23;;;;;;;47.83;18.30;;;;;;;1.68;100.00;103708.06;5016598;28;20030;-76
2022/01/14 02:55:16;;;;;;;36.17;18.00;;;;;;;1.77;100.00;103722.69;5002636;28;20077;-76
2022/01/14 02:57:44;;;;;;;36.10;16.67;;;;;;;1.77;100.00;103715.03;5016500;28;20022;-73
2022/01/14 03:00:11;;;;;;;43.25;17.48;;;;;;;1.78;100.00;103715.91;5016514;28;20037;-75
2022/01/14 03:02:41;;;;;;;31.95;16.05;;;;;;;1.76;100.00;103715.84;5016331;28;20026;-74
2022/01/14 03:05:07;;;;;;;37.40;17.38;;;;;;;1.79;100.00;103723.56;5016222;28;20025;-74
2022/01/14 03:07:33;;;;;;;45.67;17.40;;;;;;;1.75;100.00;103714.13;5016338;28;20054;-74
2022/01/14 03:09:58;;;;;;;50.20;16.42;;;;;;;1.57;100.00;103689.13;5016060;28;20057;-74
2022/01/14 03:12:24;;;;;;;43.92;16.45;;;;;;;1.72;100.00;103709.84;5015917;28;20022;-74
2022/01/14 03:14:49;;;;;;;36.22;16.45;;;;;;;1.80;100.00;103720.19;5015948;28;20032;-73
2022/01/14 03:17:14;;;;;;;49.28;16.95;;;;;;;1.65;100.00;103691.84;5016187;28;20058;-75
2022/01/14 03:19:40;;;;;;;54.00;17.63;;;;;;;1.60;100.00;103693.47;4997903;28;20564;-76
2022/01/14 03:22:17;;;;;;;51.50;16.80;;;;;;;1.76;100.00;103718.38;5015827;28;20030;-74
2022/01/14 03:27:08;;;;;;;53.75;16.13;;;;;;;1.72;100.00;103717.47;5015920;28;20056;-73
2022/01/14 03:29:33;;;;;;;52.70;16.90;;;;;;;1.56;100.00;103684.00;4998201;28;20022;-73
2022/01/14 03:32:05;;;;;;;60.20;16.38;;;;;;;1.69;100.00;103712.34;5015540;28;20129;-77
2022/01/14 03:34:31;;;;;;;52.17;16.45;;;;;;;1.47;100.00;103678.72;4997832;28;20038;-75
2022/01/14 03:36:57;;;;;;;58.65;16.15;;;;;;;1.70;100.00;103711.50;5015380;28;20040;-75
2022/01/14 03:39:23;;;;;;;56.10;16.17;;;;;;;1.67;100.00;103713.09;5015625;28;20053;-76
2022/01/14 03:41:49;;;;;;;53.83;16.38;;;;;;;1.69;100.00;103716.56;5015500;28;20477;-74
2022/01/14 03:44:15;;;;;;;57.95;16.10;;;;;;;1.55;100.00;103687.41;5015450;28;20057;-73
2022/01/14 03:46:40;;;;;;;57.15;16.63;;;;;;;1.68;100.00;103715.72;5016047;28;20069;-74
2022/01/14 03:49:06;;;;;;;62.70;15.65;;;;;;;1.60;100.00;103689.22;5015431;28;20026;-76
2022/01/14 03:51:31;;;;;;;54.20;15.88;;;;;;;1.68;100.00;103707.22;5014916;28;20040;-74
2022/01/14 03:53:57;;;;;;;55.95;15.82;;;;;;;1.65;100.00;103702.88;5013924;28;20074;-75
2022/01/14 03:56:25;;;;;;;59.83;15.68;;;;;;;1.65;100.00;103705.44;5015430;28;20406;-75
2022/01/14 03:58:52;;;;;;;57.05;16.35;;;;;;;1.63;100.00;103698.59;5015189;28;20032;-73
2022/01/14 04:01:19;;;;;;;39.55;16.58;;;;;;;1.50;100.00;103677.13;5015221;28;20069;-77
2022/01/14 04:03:45;;;;;;;47.95;15.48;;;;;;;1.53;100.00;103683.97;4997909;28;20406;-73
2022/01/14 04:06:11;;;;;;;45.88;15.93;;;;;;;1.60;100.00;103691.78;5015109;28;20026;-81
2022/01/14 04:08:36;;;;;;;44.50;16.35;;;;;;;1.59;100.00;103694.28;5014973;28;20030;-77
2022/01/14 04:11:03;;;;;;;44.78;15.90;;;;;;;1.51;100.00;103683.94;5014883;28;20065;-74
2022/01/14 04:13:42;;;;;;;53.78;16.27;;;;;;;1.46;100.00;103675.31;5014975;28;20026;-71
2022/01/14 04:16:07;;;;;;;50.30;16.88;;;;;;;1.48;100.00;103676.25;5015025;28;20022;-75
2022/01/14 04:18:33;;;;;;;51.25;16.27;;;;;;;1.48;100.00;103676.25;5012801;28;20041;-75
2022/01/14 04:20:59;;;;;;;48.35;15.88;;;;;;;1.55;100.00;103688.25;5014609;28;20033;-78
2022/01/14 04:23:24;;;;;;;54.85;16.40;;;;;;;1.35;100.00;103662.38;4997129;28;20168;-76
2022/01/14 04:25:51;;;;;;;38.88;16.25;;;;;;;1.51;100.00;103678.84;5014785;28;20029;-75
2022/01/14 04:28:18;;;;;;;54.92;16.80;;;;;;;1.31;100.00;103654.66;4996715;28;20034;-73
2022/01/14 04:30:45;;;;;;;54.75;16.58;;;;;;;1.50;100.00;103686.47;5014652;28;20458;-76
2022/01/14 04:33:10;;;;;;;44.83;15.07;;;;;;;1.52;100.00;103698.38;4996945;28;20458;-75
2022/01/14 04:35:36;;;;;;;62.30;16.95;;;;;;;1.53;100.00;103689.06;5014387;28;20052;-77
2022/01/14 04:38:01;;;;;;;39.90;15.88;;;;;;;1.41;100.00;103664.22;5014453;28;20018;-74
2022/01/14 04:40:27;;;;;;;38.60;15.45;;;;;;;1.58;100.00;103684.94;5014452;28;20477;-77
2022/01/14 04:42:53;;;;;;;50.28;16.23;;;;;;;1.57;100.00;103680.63;5014260;28;20073;-78
2022/01/14 04:47:59;;;;;;;47.35;16.15;;;;;;;1.50;100.00;103682.22;5014344;28;20041;-75
2022/01/14 04:50:25;;;;;;;46.60;14.50;;;;;;;1.25;100.00;103640.09;5014257;28;20026;-77
2022/01/14 04:52:50;;;;;;;36.22;14.45;;;;;;;1.35;100.00;103644.56;5013874;28;20030;-75
2022/01/14 04:55:19;;;;;;;32.25;14.85;;;;;;;1.50;100.00;103666.09;5014116;28;20050;-76
2022/01/14 04:57:45;;;;;;;38.45;15.43;;;;;;;1.47;100.00;103656.69;5014066;28;20438;-75
2022/01/14 05:00:14;;;;;;;36.08;15.05;;;;;;;1.46;100.00;103654.97;5014076;28;20030;-74
2022/01/14 05:02:40;;;;;;;49.97;15.77;;;;;;;1.30;100.00;103630.91;5014099;28;20053;-75
2022/01/14 05:05:07;;;;;;;41.83;14.55;;;;;;;1.41;100.00;103638.75;5013569;28;20029;-74
2022/01/14 05:07:33;;;;;;;32.53;14.85;;;;;;;1.23;100.00;103607.81;5013899;28;20033;-76
2022/01/14 05:12:23;;;;;;;38.47;14.48;;;;;;;1.01;100.00;103581.06;5013656;28;20085;-76
2022/01/14 05:14:49;;;;;;;42.75;14.73;;;;;;;1.18;100.00;103614.47;5013839;28;20057;-76
2022/01/14 05:17:14;;;;;;;49.38;15.38;;;;;;;0.97;100.00;103579.28;5013730;28;20089;-75
2022/01/14 05:19:39;;;;;;;39.67;14.18;;;;;;;1.30;100.00;103638.53;5020943;23;20111;-75
2022/01/14 05:22:05;;;;;;;36.53;14.48;;;;;;;1.04;100.00;103601.50;5013387;28;20029;-75
2022/01/14 05:24:30;;;;;;;50.13;14.32;;;;;;;1.26;100.00;103648.59;5013847;28;20022;-78
2022/01/14 05:26:55;;;;;;;38.13;14.23;;;;;;;0.83;100.00;103572.22;5013562;28;20026;-76
2022/01/14 05:29:21;;;;;;;43.17;14.00;;;;;;;1.26;100.00;103633.31;5013601;28;20022;-77
2022/01/14 05:31:50;;;;;;;46.42;15.38;;;;;;;1.25;100.00;103636.69;5013617;28;20034;-74
2022/01/14 05:34:17;;;;;;;40.10;14.75;;;;;;;1.25;100.00;103640.09;5013365;28;20025;-78
2022/01/14 05:36:43;;;;;;;50.72;14.73;;;;;;;0.97;100.00;103597.09;5013637;28;20109;-74
2022/01/14 05:39:09;;;;;;;53.90;15.38;;;;;;;1.22;100.00;103642.59;5013242;28;20445;-77
2022/01/14 05:41:35;;;;;;;50.88;15.52;;;;;;;1.20;100.00;103639.16;5013373;28;20042;-75
2022/01/14 05:44:01;;;;;;;37.50;15.13;;;;;;;1.08;100.00;103618.53;5013224;28;20033;-76
2022/01/14 05:46:28;;;;;;;43.03;14.85;;;;;;;1.22;100.00;103632.41;5013227;28;20037;-76
2022/01/14 05:48:53;;;;;;;43.67;15.25;;;;;;;1.09;100.00;103605.88;5013338;28;20068;-74
2022/01/14 05:51:19;;;;;;;39.75;15.15;;;;;;;1.12;100.00;103607.59;5012874;28;20065;-74
2022/01/14 05:53:44;;;;;;;39.88;15.00;;;;;;;1.20;100.00;103616.25;5020369;23;21147;-74
2022/01/14 05:56:10;;;;;;;40.50;14.65;;;;;;;1.24;100.00;103627.34;5013048;28;20073;-75
2022/01/14 05:58:35;;;;;;;34.17;15.25;;;;;;;1.04;100.00;103593.84;5012774;28;20028;-74
2022/01/14 06:01:00;;;;;;;35.00;15.38;;;;;;;1.27;100.00;103627.41;5013035;28;20549;-74
2022/01/14 06:03:25;;;;;;;48.47;16.05;;;;;;;1.27;100.00;103629.94;5011798;28;20022;-74
2022/01/14 06:05:51;;;;;;;44.97;15.23;;;;;;;0.90;100.00;103572.38;5013211;28;20030;-75
2022/01/14 06:08:16;;;;;;;54.72;16.25;;;;;;;1.13;100.00;103617.81;5012805;28;20524;-78
2022/01/14 06:10:41;;;;;;;50.20;14.85;;;;;;;1.21;100.00;103634.94;5012836;28;20589;-86
2022/01/14 06:13:07;;;;;;;45.35;14.88;;;;;;;1.01;100.00;103611.59;4994975;28;20029;-85
2022/01/14 06:15:32;;;;;;;53.80;14.35;;;;;;;1.14;100.00;103649.22;5012513;28;20458;-85
2022/01/14 06:17:58;;;;;;;35.67;14.60;;;;;;;1.10;100.00;103647.44;5012707;28;20030;-86
2022/01/14 06:20:23;;;;;;;40.13;15.40;;;;;;;1.12;100.00;103663.59;5013143;28;20081;-86
2022/01/14 06:22:49;;;;;;;48.03;14.63;;;;;;;1.02;100.00;103637.09;4995377;28;20054;-88
2022/01/14 06:25:15;;;;;;;41.33;15.10;;;;;;;1.13;100.00;103645.81;5012710;28;20022;-75
2022/01/14 06:27:40;;;;;;;43.33;14.57;;;;;;;1.04;100.00;103624.38;5012885;28;20029;-81
2022/01/14 06:30:07;;;;;;;42.17;14.73;;;;;;;1.14;100.00;103649.22;5012687;28;20030;-86
2022/01/14 06:32:41;;;;;;;57.03;15.32;;;;;;;1.08;100.00;103642.31;5012741;28;20034;-86
2022/01/14 06:35:11;;;;;;;42.35;15.13;;;;;;;1.09;100.00;103650.81;5012723;28;20101;-85
2022/01/14 06:37:37;;;;;;;51.25;14.98;;;;;;;1.09;100.00;103643.19;5012788;28;20026;-85
2022/01/14 06:40:04;;;;;;;40.83;15.50;;;;;;;0.93;100.00;103615.66;5012500;28;20057;-84
2022/01/14 06:42:29;;;;;;;38.55;14.77;;;;;;;0.97;100.00;103620.84;5012629;28;20022;-88
2022/01/14 06:44:55;;;;;;;36.55;14.25;;;;;;;1.04;100.00;103626.94;5012869;28;20061;-87
2022/01/14 06:47:21;;;;;;;39.78;14.85;;;;;;;1.11;100.00;103629.66;5012760;28;20466;-87
2022/01/14 06:49:47;;;;;;;32.70;13.85;;;;;;;1.09;100.00;103638.94;5012787;28;20018;-88
2022/01/14 06:52:12;;;;;;;33.40;14.75;;;;;;;0.94;100.00;103607.22;5012754;28;20041;-89
2022/01/14 06:54:37;;;;;;;41.63;14.38;;;;;;;0.98;100.00;103614.94;5012053;28;20053;-86
2022/01/14 06:57:03;;;;;;;46.78;14.98;;;;;;;1.01;100.00;103614.16;5012669;28;20025;-85
2022/01/14 06:59:29;;;;;;;31.58;14.43;;;;;;;1.06;100.00;103621.03;5012626;28;20426;-88
2022/01/14 07:01:54;;;;;;;38.25;14.18;;;;;;;1.13;100.00;103633.06;5012629;28;20021;-88
2022/01/14 07:04:19;;;;;;;41.30;14.77;;;;;;;1.13;100.00;103640.72;5012401;28;20022;-88
2022/01/14 07:06:45;;;;;;;51.88;16.02;;;;;;;1.10;100.00;103645.75;5012465;28;20030;-90
2022/01/14 07:09:10;;;;;;;49.45;15.43;;;;;;;1.00;100.00;103622.63;5012279;28;20021;-87
2022/01/14 07:11:37;;;;;;;42.70;14.43;;;;;;;1.03;100.00;103620.13;5012330;28;20026;-75
2022/01/14 07:14:06;;;;;;;46.30;13.57;;;;;;;1.05;100.00;103632.06;5012561;28;20025;-77
2022/01/14 07:16:33;;;;;;;38.47;13.93;;;;;;;1.08;100.00;103639.78;5012468;28;20022;-78
2022/01/14 07:19:00;;;;;;;44.20;13.95;;;;;;;1.05;100.00;103637.13;5012675;28;20073;-79
2022/01/14 07:21:25;;;;;;;57.63;14.48;;;;;;;1.05;100.00;103643.91;5012345;28;20026;-79
2022/01/14 07:23:51;;;;;;;52.45;14.50;;;;;;;1.07;100.00;103645.66;5012504;28;20530;-81
2022/01/14 07:26:17;;;;;;;47.45;14.27;;;;;;;1.04;100.00;103647.28;5012261;28;20074;-89
2022/01/14 07:28:42;;;;;;;52.25;14.10;;;;;;;0.97;100.00;103641.19;5015358;28;20014;-89
2022/01/14 07:31:07;;;;;;;45.15;14.23;;;;;;;0.84;100.00;103632.44;5016725;28;20026;-87
2022/01/14 07:33:33;;;;;;;43.60;13.02;;;;;;;0.95;100.00;103658.13;4998495;28;20424;-88
2022/01/14 07:35:58;;;;;;;42.92;14.07;;;;;;;0.93;100.00;103658.91;5015763;28;20072;-84
2022/01/14 07:38:24;;;;;;;66.60;15.07;;;;;;;0.93;100.00;103664.88;5016059;28;20085;-91
2022/01/14 07:40:49;;;;;;;41.72;13.23;;;;;;;0.97;100.00;103659.00;5015768;28;20072;-88
2022/01/14 07:43:15;;;;;;;62.50;14.90;;;;;;;0.96;100.00;103653.88;5015852;28;20110;-88
2022/01/14 07:45:40;;;;;;;56.05;13.90;;;;;;;0.92;100.00;103659.75;5015557;28;20385;-90
2022/01/14 07:48:06;;;;;;;50.13;14.05;;;;;;;0.76;100.00;103639.03;5015725;28;20433;-90
2022/01/14 07:50:31;;;;;;;63.88;14.93;;;;;;;0.87;100.00;103654.53;5015553;28;20033;-90
2022/01/14 07:52:56;;;;;;;53.63;13.68;;;;;;;0.55;100.00;103613.97;5015610;28;20037;-85
2022/01/14 07:55:22;;;;;;;45.65;13.43;;;;;;;0.80;100.00;103658.66;5015330;28;20046;-86
2022/01/14 07:57:47;;;;;;;57.95;13.98;;;;;;;0.80;100.00;103658.66;5015630;28;20030;-82
2022/01/14 08:00:13;;;;;;;50.85;13.52;;;;;;;0.71;100.00;103634.69;5015521;28;20026;-85
2022/01/14 08:02:39;;;;;;;58.85;14.55;;;;;;;0.86;100.00;103652.81;5014894;28;20077;-76
2022/01/14 08:05:05;;;;;;;49.45;14.15;;;;;;;0.74;100.00;103633.06;4998361;28;20433;-90
2022/01/14 08:07:33;;;;;;;49.15;14.73;;;;;;;0.84;100.00;103634.13;5015309;28;20022;-82
2022/01/14 08:09:58;;;;;;;57.70;14.45;;;;;;;0.86;100.00;103633.34;5015167;28;20292;-79
2022/01/14 08:12:24;;;;;;;44.88;14.88;;;;;;;0.65;100.00;103589.63;5015162;28;20458;-84
2022/01/14 08:14:49;;;;;;;54.38;14.75;;;;;;;0.88;100.00;103635.91;5015245;28;20101;-86
2022/01/14 08:17:18;;;;;;;38.38;14.85;;;;;;;0.89;100.00;103631.72;5015089;28;20134;-83
2022/01/14 08:19:43;;;;;;;44.83;14.18;;;;;;;0.56;100.00;103589.41;5015197;28;20057;-89
2022/01/14 08:22:08;;;;;;;40.17;15.13;;;;;;;0.85;100.00;103629.06;5015006;28;20056;-91
2022/01/14 08:24:35;;;;;;;39.47;13.98;;;;;;;0.85;100.00;103651.97;5015016;28;20448;-88
2022/01/14 08:27:01;;;;;;;43.20;14.82;;;;;;;0.74;100.00;103627.13;4996955;28;20072;-91
2022/01/14 08:29:33;;;;;;;38.33;15.20;;;;;;;0.93;100.00;103662.31;5014896;28;20045;-85
2022/01/14 08:31:58;;;;;;;45.33;14.77;;;;;;;1.00;100.00;103669.28;5014474;28;20530;-73
2022/01/14 08:34:24;;;;;;;53.20;14.65;;;;;;;1.04;100.00;103672.72;5014667;28;20110;-79
2022/01/14 08:36:50;;;;;;;45.05;14.98;;;;;;;1.01;100.00;103647.22;4996981;28;20028;-89
2022/01/14 08:39:16;;;;;;;45.08;15.63;;;;;;;1.06;100.00;103668.53;5014214;28;20025;-88
2022/01/14 08:41:41;;;;;;;43.75;15.32;;;;;;;1.10;100.00;103678.84;5014479;28;20078;-87
2022/01/14 08:44:07;;;;;;;54.63;14.50;;;;;;;1.09;100.00;103651.66;5014542;28;20029;-89
2022/01/14 08:46:34;;;;;;;50.88;15.30;;;;;;;1.14;100.00;103661.94;5014361;28;20022;-89
2022/01/14 08:49:01;;;;;;;40.80;14.88;;;;;;;1.17;100.00;103662.00;5014478;28;20026;-85
2022/01/14 08:51:28;;;;;;;50.47;15.07;;;;;;;1.13;100.00;103640.72;5014391;28;20029;-90
2022/01/14 08:53:53;;;;;;;41.78;15.63;;;;;;;1.15;100.00;103633.09;5013609;28;20094;-89
2022/01/14 08:56:19;;;;;;;50.97;16.25;;;;;;;1.17;100.00;103623.81;4994559;28;20548;-91
2022/01/14 08:58:44;;;;;;;61.55;16.30;;;;;;;1.16;100.00;103624.63;4994835;28;20046;-91
2022/01/14 09:01:10;;;;;;;42.85;15.85;;;;;;;1.08;100.00;103593.97;4994391;28;20041;-90
2022/01/14 09:03:35;;;;;;;49.85;16.83;;;;;;;1.40;100.00;103637.88;4993679;28;20123;-86
2022/01/14 09:06:00;;;;;;;39.25;15.85;;;;;;;1.55;100.00;103656.84;4995248;28;20026;-90
2022/01/14 09:08:26;;;;;;;50.75;16.35;;;;;;;1.48;100.00;103625.31;4995132;28;20034;-87
2022/01/14 09:10:51;;;;;;;46.13;15.57;;;;;;;1.19;100.00;103550.06;4994334;28;20022;-82
2022/01/14 09:13:17;;;;;;;51.10;15.80;;;;;;;1.72;100.00;103652.94;4994209;28;20085;-89
2022/01/14 09:15:43;;;;;;;42.95;15.93;;;;;;;1.55;100.00;103628.81;4994806;28;20374;-90
2022/01/14 09:18:08;;;;;;;45.40;15.60;;;;;;;1.39;100.00;103600.53;4994136;28;20033;-82
2022/01/14 09:20:34;;;;;;;54.92;16.10;;;;;;;1.64;100.00;103632.41;4994470;28;20029;-85
2022/01/14 09:22:59;;;;;;;52.30;16.58;;;;;;;1.70;100.00;103637.63;4994154;28;20037;-85
2022/01/14 09:25:25;;;;;;;59.15;15.93;;;;;;;1.60;100.00;103630.63;4994322;28;20034;-89
2022/01/14 09:27:52;;;;;;;46.47;16.50;;;;;;;1.01;100.00;103532.72;4993960;28;20026;-88
2022/01/14 09:30:19;;;;;;;38.92;14.90;;;;;;;1.66;100.00;103647.72;4994453;28;20161;-86
2022/01/14 09:32:45;;;;;;;46.70;16.65;;;;;;;1.77;100.00;103674.28;4994134;28;20057;-85
2022/01/14 09:35:13;;;;;;;40.00;16.15;;;;;;;1.82;100.00;103659.06;4994196;28;20471;-88
2022/01/14 09:37:42;;;;;;;50.28;17.27;;;;;;;1.79;100.00;103667.50;4993981;28;20161;-88
2022/01/14 09:40:08;;;;;;;46.08;15.55;;;;;;;1.57;100.00;103611.88;4993975;28;20033;-83
2022/01/14 09:42:34;;;;;;;50.90;15.82;;;;;;;1.64;100.00;103641.72;4993748;28;20030;-77
2022/01/14 09:44:59;;;;;;;38.88;16.08;;;;;;;0.79;100.00;103498.38;4993813;28;20489;-78
2022/01/14 09:47:25;;;;;;;52.35;18.02;;;;;;;1.47;100.00;103607.44;4976421;28;20034;-85
2022/01/14 09:49:53;;;;;;;54.70;16.35;;;;;;;1.72;100.00;103660.56;4993871;28;20030;-90
2022/01/14 09:52:18;;;;;;;53.47;17.17;;;;;;;1.51;100.00;103620.28;4975810;28;20459;-78
2022/01/14 09:54:45;;;;;;;46.08;16.02;;;;;;;1.89;100.00;103691.47;5001494;28;20081;-84
2022/01/14 09:57:14;;;;;;;39.67;16.15;;;;;;;1.10;100.00;103538.00;4995470;28;20381;-84
2022/01/14 09:59:40;;;;;;;46.13;17.63;;;;;;;1.79;100.00;103649.69;5013137;28;20381;-79
2022/01/14 10:02:05;;;;;;;49.80;17.20;;;;;;;1.75;100.00;103635.16;5013243;28;20022;-77
2022/01/14 10:04:31;;;;;;;48.28;17.40;;;;;;;1.93;100.00;103678.81;4995176;28;20044;-89
2022/01/14 10:06:58;;;;;;;39.20;16.73;;;;;;;1.91;100.00;103656.69;5013485;28;20057;-83
2022/01/14 10:09:33;;;;;;;45.33;17.27;;;;;;;1.81;100.00;103637.81;5013144;28;20101;-91
2022/01/14 10:12:16;;;;;;;49.55;17.63;;;;;;;2.13;100.00;103679.16;5013042;28;20030;-90
2022/01/14 10:15:09;;;;;;;37.60;16.80;;;;;;;2.22;100.00;103684.44;5012898;28;20442;-78
2022/01/14 10:17:40;;;;;;;35.45;17.25;;;;;;;2.24;100.00;103680.22;5013301;28;20036;-86
2022/01/14 10:20:08;;;;;;;33.30;16.80;;;;;;;2.20;100.00;103672.50;5013409;28;20422;-80
2022/01/14 10:22:38;;;;;;;39.67;16.85;;;;;;;2.18;100.00;103669.06;5013209;28;20025;-85
2022/01/14 10:25:12;;;;;;;40.20;18.75;;;;;;;2.30;99.90;103682.03;5012778;28;20034;-85
2022/01/14 10:27:38;;;;;;;35.25;17.00;;;;;;;2.37;100.00;103677.91;5012713;28;20518;-86
2022/01/14 10:30:20;;;;;;;32.78;19.77;;;;;;;2.40;100.00;103680.50;5012121;28;20097;-76
2022/01/14 10:33:06;;;;;;;48.38;21.35;;;;;;;2.20;100.00;103635.13;5012801;28;20545;-86
2022/01/14 10:35:43;;;;;;;42.10;18.02;;;;;;;2.26;100.00;103635.22;5012673;28;20081;-81
2022/01/14 10:38:12;;;;;;;34.55;17.42;;;;;;;2.37;99.69;103657.50;4995002;28;20022;-88
2022/01/14 10:41:03;;;;;;;36.85;17.67;;;;;;;2.50;99.68;103675.56;5012839;28;20057;-85
2022/01/14 10:43:35;;;;;;;33.15;18.42;;;;;;;2.06;99.52;103594.91;4995048;28;20084;-89
2022/01/14 10:46:06;;;;;;;;;;;;;;;2.64;100.00;103673.22;5013201;28;20028;-87
2022/01/14 10:48:37;;;;;;;34.80;19.60;;;;;;;2.26;99.28;103622.47;5012702;28;19913;-90
2022/01/14 10:51:08;;;;;;;34.60;19.23;;;;;;;2.06;99.55;103574.53;5012904;28;20037;-85
2022/01/14 10:53:36;;;;;;;35.22;21.15;;;;;;;2.72;99.02;103676.75;4994931;28;20022;-88
2022/01/14 10:56:25;;;;;;;32.63;18.70;;;;;;;2.32;98.83;103603.84;5012507;28;20049;-85
2022/01/14 10:58:56;;;;;;;39.38;18.48;;;;;;;2.17;98.49;103573.91;5012432;28;20049;-90
2022/01/14 11:01:23;;;;;;;38.80;20.50;;;;;;;2.45;98.76;103602.34;5012631;28;20018;-91
2022/01/14 11:03:56;;;;;;;37.65;21.40;;;;;;;1.88;98.96;103494.44;5067856;23;20311;-80
2022/01/14 11:06:23;;;;;;;38.50;21.13;;;;;;;2.92;99.12;103653.22;5031200;28;20064;-85
2022/01/14 11:09:03;;;;;;;54.83;33.90;;;;;;;2.66;99.14;103606.94;4999037;28;20393;-79
2022/01/14 11:11:33;;;;;;;33.00;20.42;;;;;;;3.04;98.66;103654.25;5010066;28;20025;-89
2022/01/14 11:13:59;;;;;;;33.30;19.80;;;;;;;3.07;97.97;103651.75;5016255;28;20026;-86
2022/01/14 11:16:25;;;;;;;35.03;19.15;;;;;;;2.85;98.48;103598.66;5023021;23;20056;-87
2022/01/14 11:18:51;;;;;;;30.60;18.85;;;;;;;3.05;98.03;103621.94;5016264;28;20037;-81
2022/01/14 11:24:04;;;;;;;35.33;19.17;;;;;;;3.02;98.36;103622.75;5001475;28;20128;-79
2022/01/14 11:26:37;;;;;;;32.67;19.85;;;;;;;3.12;98.45;103632.22;5016150;28;20060;-75
2022/01/14 11:29:15;;;;;;;31.27;18.45;;;;;;;3.10;97.64;103622.84;5015912;28;20113;-82
2022/01/14 11:31:42;;;;;;;30.88;18.65;;;;;;;3.23;97.62;103655.34;5014855;28;20034;-78
2022/01/14 11:34:29;;;;;;;29.20;17.58;;;;;;;3.10;97.85;103622.84;5015824;28;20076;-78
2022/01/14 11:36:57;;;;;;;30.67;18.08;;;;;;;3.13;97.70;103639.03;4998037;28;20061;-85
2022/01/14 11:39:29;;;;;;;28.70;17.85;;;;;;;2.86;97.55;103596.16;4998495;28;20104;-82
2022/01/14 11:42:12;;;;;;;32.28;18.65;;;;;;;2.86;97.90;103587.66;5015844;28;20061;-83
2022/01/14 11:49:48;;;;;;;29.73;17.85;;;;;;;2.96;97.81;103603.94;5793968;22;20405;-74
2022/01/14 11:52:13;;;;;;;30.90;18.20;;;;;;;3.29;97.98;103637.56;5015488;28;20033;-77
2022/01/14 11:54:41;;;;;;;33.60;20.23;;;;;;;3.13;98.23;103598.19;5016081;28;20512;-81